Time;durP1;ratioP1;P1;durP2;ratioP2;P2;SDS_P1;SDS_P2;PMS_P1;PMS_P2;Temp;Humidity;BMP_temperature;BMP_pressure;BME280_temperature;BME280_humidity;BME280_pressure;Samples;Min_cycle;Max_cycle;Signal;HPM_P1;HPM_P2
2023/09/28 00:01:47;;;;;;;6.15;2.47;;;;;;;;;;5017187;28;20397;-76
2023/09/28 00:04:13;;;;;;;5.82;1.90;;;;;;;;;;5025250;28;20038;-73
2023/09/28 00:06:39;;;;;;;6.30;1.88;;;;;;;;;;5026671;28;20055;-74
2023/09/28 00:09:10;;;;;;;8.80;2.45;;;;;;;;;;5013997;28;20029;-73
2023/09/28 00:11:36;;;;;;;5.43;2.08;;;;;;;;;;5028798;28;20025;-74
2023/09/28 00:14:04;;;;;;;6.82;1.90;;;;;;;;;;5028736;28;20034;-72
2023/09/28 00:16:31;;;;;;;6.05;2.30;;;;;;;;;;5026834;28;20022;-75
2023/09/28 00:18:58;;;;;;;4.43;1.63;;;;;;;;;;5027220;28;20584;-74
2023/09/28 00:21:25;;;;;;;9.63;2.30;;;;;;;;;;5018139;28;20052;-74
2023/09/28 00:23:52;;;;;;;5.93;2.03;;;;;;;;;;5015939;28;20033;-73
2023/09/28 00:26:19;;;;;;;5.47;1.80;;;;;;;;;;5015568;28;20406;-74
2023/09/28 00:28:45;;;;;;;3.67;2.38;;;;;;;;;;5019036;28;20025;-74
2023/09/28 00:31:11;;;;;;;5.50;2.30;;;;;;;;;;5019400;28;20022;-75
2023/09/28 00:33:38;;;;;;;7.68;1.95;;;;;;;;;;5021365;28;20030;-74
2023/09/28 00:36:04;;;;;;;8.10;2.25;;;;;;;;;;5018090;28;20025;-72
2023/09/28 00:38:30;;;;;;;5.72;2.50;;;;;;;;;;5020533;28;20507;-74
2023/09/28 00:40:57;;;;;;;6.80;2.22;;;;;;;;;;5019232;28;20175;-74
2023/09/28 00:43:26;;;;;;;8.10;2.38;;;;;;;;;;5019580;28;20049;-73
2023/09/28 00:45:56;;;;;;;10.95;2.92;;;;;;;;;;5016231;28;20033;-73
2023/09/28 00:48:22;;;;;;;8.52;2.45;;;;;;;;;;5025499;28;20045;-74
2023/09/28 00:50:48;;;;;;;4.90;2.10;;;;;;;;;;5017763;28;20055;-74
2023/09/28 00:53:15;;;;;;;7.20;1.92;;;;;;;;;;5017303;28;20530;-74
2023/09/28 00:55:42;;;;;;;6.10;3.00;;;;;;;;;;5016162;28;20025;-74
2023/09/28 00:58:09;;;;;;;8.73;2.80;;;;;;;;;;5011639;28;20064;-74
2023/09/28 01:00:36;;;;;;;4.65;2.50;;;;;;;;;;5023336;28;20044;-74
2023/09/28 01:03:08;;;;;;;6.70;2.30;;;;;;;;;;5021294;28;20072;-74
2023/09/28 01:05:38;;;;;;;8.70;2.10;;;;;;;;;;5024319;28;20026;-73
2023/09/28 01:08:11;;;;;;;6.40;2.47;;;;;;;;;;5024305;28;20565;-74
2023/09/28 01:10:40;;;;;;;7.72;2.40;;;;;;;;;;5033797;28;20462;-73
2023/09/28 01:13:20;;;;;;;8.05;2.35;;;;;;;;;;5026135;28;20544;-73
2023/09/28 01:15:47;;;;;;;5.28;2.38;;;;;;;;;;5022259;28;20116;-74
2023/09/28 01:18:17;;;;;;;10.00;2.53;;;;;;;;;;5018526;28;20025;-74
2023/09/28 01:20:44;;;;;;;5.70;2.55;;;;;;;;;;5029640;28;20477;-74
2023/09/28 01:23:10;;;;;;;8.05;2.30;;;;;;;;;;5024024;28;20045;-73
2023/09/28 01:25:37;;;;;;;8.65;2.33;;;;;;;;;;5024002;28;20053;-73
2023/09/28 01:28:03;;;;;;;5.93;2.33;;;;;;;;;;5022750;28;20453;-73
2023/09/28 01:30:30;;;;;;;5.28;1.70;;;;;;;;;;5023694;28;20095;-74
2023/09/28 01:32:56;;;;;;;5.43;1.67;;;;;;;;;;5029864;28;20485;-74
2023/09/28 01:35:23;;;;;;;4.00;1.90;;;;;;;;;;5029396;28;20060;-74
2023/09/28 01:38:09;;;;;;;6.72;2.83;;;;;;;;;;5027787;28;20052;-73
2023/09/28 01:40:35;;;;;;;4.63;2.10;;;;;;;;;;5039646;28;20127;-73
2023/09/28 01:43:01;;;;;;;8.20;2.10;;;;;;;;;;5024265;28;20029;-73
2023/09/28 01:45:27;;;;;;;4.97;1.88;;;;;;;;;;5024957;28;20025;-74
2023/09/28 01:47:54;;;;;;;4.40;2.20;;;;;;;;;;5027788;28;20044;-74
2023/09/28 01:50:20;;;;;;;6.40;2.30;;;;;;;;;;5021873;28;20132;-74
2023/09/28 01:52:46;;;;;;;3.92;1.90;;;;;;;;;;5026604;28;20548;-73
2023/09/28 01:55:12;;;;;;;5.05;1.95;;;;;;;;;;5015368;28;20152;-73
2023/09/28 01:57:38;;;;;;;6.13;2.45;;;;;;;;;;5017626;28;20029;-74
2023/09/28 02:00:18;;;;;;;5.45;2.15;;;;;;;;;;5026490;28;20241;-75
2023/09/28 02:02:45;;;;;;;5.97;2.10;;;;;;;;;;5023527;28;20053;-74
2023/09/28 02:05:14;;;;;;;3.38;2.00;;;;;;;;;;5019702;28;20057;-74
2023/09/28 02:07:40;;;;;;;5.85;1.92;;;;;;;;;;5019457;28;20153;-74
2023/09/28 02:10:08;;;;;;;7.15;2.00;;;;;;;;;;5021431;28;20092;-74
2023/09/28 02:12:34;;;;;;;4.15;2.28;;;;;;;;;;5025172;28;20055;-74
2023/09/28 02:17:50;;;;;;;5.65;2.35;;;;;;;;;;5021283;28;20543;-74
2023/09/28 02:20:19;;;;;;;7.00;2.67;;;;;;;;;;5014393;28;20038;-75
2023/09/28 02:22:46;;;;;;;7.45;1.88;;;;;;;;;;5024658;28;20037;-74
2023/09/28 02:25:17;;;;;;;7.90;3.13;;;;;;;;;;5026836;28;20370;-74
2023/09/28 02:27:43;;;;;;;7.63;2.38;;;;;;;;;;5013996;28;20404;-74
2023/09/28 02:30:14;;;;;;;6.20;2.17;;;;;;;;;;5017924;28;20558;-73
2023/09/28 02:32:44;;;;;;;5.63;2.38;;;;;;;;;;5011563;28;20017;-74
2023/09/28 02:35:13;;;;;;;5.32;2.50;;;;;;;;;;5017677;28;20030;-74
2023/09/28 02:37:39;;;;;;;6.10;2.38;;;;;;;;;;5020278;28;20029;-75
2023/09/28 02:40:06;;;;;;;4.13;2.20;;;;;;;;;;5021586;28;20132;-75
2023/09/28 02:42:36;;;;;;;4.93;2.70;;;;;;;;;;5022941;28;20529;-74
2023/09/28 02:45:11;;;;;;;6.80;2.45;;;;;;;;;;5018875;28;20445;-75
2023/09/28 02:47:37;;;;;;;5.97;2.30;;;;;;;;;;5019527;28;20029;-75
2023/09/28 02:50:06;;;;;;;6.47;2.30;;;;;;;;;;5021573;28;20502;-74
2023/09/28 02:52:32;;;;;;;7.95;2.10;;;;;;;;;;5021490;28;20025;-74
2023/09/28 02:54:59;;;;;;;7.78;3.28;;;;;;;;;;5020725;28;20040;-74
2023/09/28 02:57:25;;;;;;;6.55;1.95;;;;;;;;;;5020874;28;20041;-74
2023/09/28 02:59:51;;;;;;;4.78;2.28;;;;;;;;;;5017482;28;20038;-74
2023/09/28 03:02:17;;;;;;;4.88;2.65;;;;;;;;;;5018260;28;20116;-74
2023/09/28 03:04:43;;;;;;;5.80;2.30;;;;;;;;;;5023004;28;20193;-73
2023/09/28 03:07:09;;;;;;;8.07;2.53;;;;;;;;;;5020027;28;20056;-74
2023/09/28 03:09:35;;;;;;;4.55;2.13;;;;;;;;;;5017556;28;20029;-74
2023/09/28 03:12:03;;;;;;;3.00;1.80;;;;;;;;;;5013114;28;20025;-73
2023/09/28 03:14:29;;;;;;;5.47;2.40;;;;;;;;;;5015335;28;20582;-73
2023/09/28 03:16:56;;;;;;;2.10;1.55;;;;;;;;;;5021856;28;20034;-74
2023/09/28 03:19:22;;;;;;;7.10;2.00;;;;;;;;;;5019679;28;20046;-74
2023/09/28 03:21:49;;;;;;;3.70;1.85;;;;;;;;;;5016855;28;20041;-73
2023/09/28 03:24:15;;;;;;;2.08;1.60;;;;;;;;;;5014584;28;20136;-74
2023/09/28 03:26:41;;;;;;;6.85;1.88;;;;;;;;;;5018134;28;20033;-74
2023/09/28 03:29:07;;;;;;;4.75;1.85;;;;;;;;;;5021308;28;20480;-75
2023/09/28 03:31:34;;;;;;;5.75;2.42;;;;;;;;;;5025110;28;20602;-73
2023/09/28 03:34:00;;;;;;;8.27;2.70;;;;;;;;;;5021566;28;20500;-73
2023/09/28 03:36:30;;;;;;;6.70;2.72;;;;;;;;;;5018726;28;20292;-73
2023/09/28 03:38:57;;;;;;;5.28;2.85;;;;;;;;;;5019575;28;20515;-74
2023/09/28 03:41:23;;;;;;;8.77;2.83;;;;;;;;;;5019988;28;20040;-73
2023/09/28 03:43:49;;;;;;;6.40;2.42;;;;;;;;;;5019027;28;20038;-73
2023/09/28 03:46:21;;;;;;;6.18;2.40;;;;;;;;;;5018602;28;20037;-74
2023/09/28 03:48:48;;;;;;;8.02;3.40;;;;;;;;;;5017907;28;20029;-74
2023/09/28 03:51:16;;;;;;;7.28;2.30;;;;;;;;;;5015595;28;20613;-74
2023/09/28 03:53:43;;;;;;;5.50;2.35;;;;;;;;;;5021404;28;20602;-74
2023/09/28 03:56:09;;;;;;;9.48;2.80;;;;;;;;;;5018858;28;20100;-75
2023/09/28 03:58:35;;;;;;;9.23;2.40;;;;;;;;;;5020849;28;20030;-74
2023/09/28 04:01:03;;;;;;;3.42;2.20;;;;;;;;;;5019428;28;20060;-74
2023/09/28 04:03:29;;;;;;;8.48;3.05;;;;;;;;;;5020356;28;20063;-73
2023/09/28 04:05:55;;;;;;;8.52;2.47;;;;;;;;;;5021427;28;20501;-73
2023/09/28 04:08:22;;;;;;;5.93;1.90;;;;;;;;;;5016163;28;20032;-74
2023/09/28 04:10:50;;;;;;;9.27;2.38;;;;;;;;;;5018744;28;20032;-74
2023/09/28 04:13:17;;;;;;;4.47;2.10;;;;;;;;;;5014512;28;20021;-75
2023/09/28 04:15:43;;;;;;;6.63;2.00;;;;;;;;;;5017838;28;20477;-74
2023/09/28 04:18:09;;;;;;;3.55;1.90;;;;;;;;;;5019779;28;20036;-74
2023/09/28 04:20:35;;;;;;;6.22;2.10;;;;;;;;;;5021440;28;20037;-74
2023/09/28 04:23:05;;;;;;;6.10;2.10;;;;;;;;;;5049217;28;20026;-73
2023/09/28 04:25:33;;;;;;;8.27;2.00;;;;;;;;;;5022144;28;20030;-74
2023/09/28 04:27:59;;;;;;;8.52;2.40;;;;;;;;;;5023947;28;20112;-74
2023/09/28 04:30:25;;;;;;;6.50;2.58;;;;;;;;;;5022509;28;20055;-74
2023/09/28 04:32:51;;;;;;;6.82;2.33;;;;;;;;;;5022899;28;20032;-74
2023/09/28 04:35:17;;;;;;;7.60;3.15;;;;;;;;;;5020975;28;20552;-75
2023/09/28 04:37:43;;;;;;;11.63;3.55;;;;;;;;;;5006773;28;20022;-75
2023/09/28 04:40:10;;;;;;;10.77;2.88;;;;;;;;;;5020767;28;20092;-75
2023/09/28 04:42:38;;;;;;;9.45;2.85;;;;;;;;;;5015718;28;20053;-75
2023/09/28 04:45:05;;;;;;;6.30;2.70;;;;;;;;;;5019331;28;20485;-75
2023/09/28 04:47:31;;;;;;;9.95;3.05;;;;;;;;;;5020556;28;20030;-74
2023/09/28 04:49:57;;;;;;;12.75;2.72;;;;;;;;;;5022551;28;20021;-75
2023/09/28 04:52:23;;;;;;;9.45;2.90;;;;;;;;;;5018155;28;20437;-75
2023/09/28 04:54:51;;;;;;;7.40;2.92;;;;;;;;;;5016731;28;20038;-75
2023/09/28 04:57:20;;;;;;;9.80;2.53;;;;;;;;;;5019889;28;20032;-74
2023/09/28 04:59:46;;;;;;;9.32;3.47;;;;;;;;;;5056790;28;20032;-75
2023/09/28 05:02:13;;;;;;;9.23;3.40;;;;;;;;;;5022614;28;20025;-75
2023/09/28 05:04:39;;;;;;;5.90;2.72;;;;;;;;;;5021503;28;20795;-74
2023/09/28 05:07:05;;;;;;;7.43;2.55;;;;;;;;;;5027286;28;20029;-74
2023/09/28 05:09:31;;;;;;;11.55;3.25;;;;;;;;;;5028803;28;20156;-75
2023/09/28 05:11:59;;;;;;;9.88;2.75;;;;;;;;;;5024827;28;20032;-75
2023/09/28 05:14:26;;;;;;;8.13;2.92;;;;;;;;;;5024480;28;20494;-74
2023/09/28 05:16:53;;;;;;;11.68;2.50;;;;;;;;;;5026190;28;20049;-73
2023/09/28 05:19:22;;;;;;;10.98;2.97;;;;;;;;;;5032768;28;20283;-73
2023/09/28 05:21:48;;;;;;;6.40;2.25;;;;;;;;;;5017325;28;20030;-74
2023/09/28 05:24:14;;;;;;;7.95;2.33;;;;;;;;;;5022983;28;20029;-74
2023/09/28 05:26:41;;;;;;;5.22;2.75;;;;;;;;;;5017943;28;20164;-74
2023/09/28 05:29:07;;;;;;;8.68;2.50;;;;;;;;;;5055413;28;20347;-73
2023/09/28 05:31:33;;;;;;;5.47;2.55;;;;;;;;;;5020905;28;20668;-72
2023/09/28 05:34:00;;;;;;;6.15;2.65;;;;;;;;;;5048009;28;20087;-74
2023/09/28 05:36:26;;;;;;;7.25;2.85;;;;;;;;;;5020850;28;20087;-75
2023/09/28 05:38:52;;;;;;;10.20;2.80;;;;;;;;;;5020177;28;20041;-74
2023/09/28 05:41:18;;;;;;;11.20;2.50;;;;;;;;;;5023353;28;20034;-73
2023/09/28 05:43:44;;;;;;;8.95;2.42;;;;;;;;;;5026497;28;20061;-71
2023/09/28 05:46:10;;;;;;;4.97;2.45;;;;;;;;;;5042966;28;20064;-73
2023/09/28 05:48:38;;;;;;;10.85;2.22;;;;;;;;;;5032230;28;20756;-71
2023/09/28 05:51:04;;;;;;;5.60;2.53;;;;;;;;;;5034137;28;20025;-68
2023/09/28 05:53:30;;;;;;;9.43;3.72;;;;;;;;;;5036424;28;20033;-70
2023/09/28 05:55:56;;;;;;;11.52;2.95;;;;;;;;;;5029618;28;20033;-70
2023/09/28 05:58:22;;;;;;;7.82;2.75;;;;;;;;;;5027164;28;20030;-71
2023/09/28 06:00:49;;;;;;;6.13;3.65;;;;;;;;;;5026924;28;20391;-71
2023/09/28 06:03:17;;;;;;;7.28;2.30;;;;;;;;;;5025116;28;20040;-70
2023/09/28 06:05:43;;;;;;;7.30;2.50;;;;;;;;;;5040118;28;20035;-71
2023/09/28 06:08:09;;;;;;;8.35;2.67;;;;;;;;;;5031335;28;20034;-69
2023/09/28 06:10:37;;;;;;;9.45;3.08;;;;;;;;;;5040545;28;20520;-71
2023/09/28 06:13:04;;;;;;;11.00;2.80;;;;;;;;;;5033775;28;20017;-71
2023/09/28 06:15:32;;;;;;;3.25;2.25;;;;;;;;;;5021841;28;20116;-71
2023/09/28 06:17:59;;;;;;;4.22;2.83;;;;;;;;;;5059623;28;20026;-71
2023/09/28 06:20:25;;;;;;;6.28;2.38;;;;;;;;;;5034517;28;20030;-71
2023/09/28 06:22:53;;;;;;;13.20;2.85;;;;;;;;;;5025977;28;20104;-71
2023/09/28 06:25:19;;;;;;;7.38;3.38;;;;;;;;;;5031090;28;20388;-72
2023/09/28 06:27:47;;;;;;;6.90;2.60;;;;;;;;;;5027217;28;20033;-71
2023/09/28 06:30:13;;;;;;;8.70;3.22;;;;;;;;;;5030395;28;20033;-71
2023/09/28 06:32:39;;;;;;;15.23;2.97;;;;;;;;;;5029685;28;20462;-71
2023/09/28 06:35:06;;;;;;;12.77;2.78;;;;;;;;;;5027028;28;20045;-70
2023/09/28 06:37:32;;;;;;;13.80;2.60;;;;;;;;;;5027453;28;20385;-71
2023/09/28 06:39:58;;;;;;;10.43;3.42;;;;;;;;;;5028158;28;20041;-71
2023/09/28 06:42:24;;;;;;;10.65;3.65;;;;;;;;;;5026349;28;20048;-71
2023/09/28 06:44:50;;;;;;;8.20;3.28;;;;;;;;;;5027193;28;20489;-71
2023/09/28 06:47:17;;;;;;;11.65;3.85;;;;;;;;;;5025294;28;20029;-70
2023/09/28 06:49:44;;;;;;;10.77;3.75;;;;;;;;;;5027752;28;20030;-70
2023/09/28 06:52:10;;;;;;;12.85;3.53;;;;;;;;;;5026266;28;20028;-70
2023/09/28 06:54:38;;;;;;;6.13;2.60;;;;;;;;;;5049767;28;20143;-71
2023/09/28 06:57:04;;;;;;;12.68;3.60;;;;;;;;;;5025709;28;20520;-71
2023/09/28 06:59:30;;;;;;;8.13;2.40;;;;;;;;;;5029096;28;20040;-71
2023/09/28 07:01:59;;;;;;;8.65;2.63;;;;;;;;;;5030790;28;20067;-70
2023/09/28 07:04:25;;;;;;;10.20;2.97;;;;;;;;;;5031859;28;20029;-71
2023/09/28 07:06:52;;;;;;;10.85;3.10;;;;;;;;;;5023245;28;20036;-71
2023/09/28 07:09:18;;;;;;;7.35;3.10;;;;;;;;;;5028072;28;20069;-71
2023/09/28 07:11:44;;;;;;;9.00;3.20;;;;;;;;;;5028489;28;20029;-72
2023/09/28 07:14:10;;;;;;;11.38;3.40;;;;;;;;;;5025474;28;20033;-72
2023/09/28 07:16:38;;;;;;;8.32;3.00;;;;;;;;;;5009399;28;21524;-78
2023/09/28 07:19:05;;;;;;;7.88;2.92;;;;;;;;;;5012086;28;20545;-75
2023/09/28 07:21:31;;;;;;;11.18;3.13;;;;;;;;;;5032091;28;20279;-76
2023/09/28 07:23:57;;;;;;;8.60;2.92;;;;;;;;;;5016835;28;20021;-80
2023/09/28 07:26:23;;;;;;;8.25;3.15;;;;;;;;;;5018170;28;20510;-76
2023/09/28 07:28:49;;;;;;;8.60;3.00;;;;;;;;;;5017144;28;20025;-77
2023/09/28 07:31:19;;;;;;;11.50;3.83;;;;;;;;;;5014273;28;20443;-72
2023/09/28 07:33:45;;;;;;;8.93;2.78;;;;;;;;;;5015278;28;20053;-75
2023/09/28 07:36:12;;;;;;;11.93;2.90;;;;;;;;;;5010710;28;20112;-72
2023/09/28 07:38:38;;;;;;;10.27;3.60;;;;;;;;;;5013729;28;20025;-73
2023/09/28 07:41:04;;;;;;;11.95;3.25;;;;;;;;;;5011162;28;20493;-74
2023/09/28 07:43:30;;;;;;;9.25;3.67;;;;;;;;;;5017791;28;20030;-73
2023/09/28 07:45:57;;;;;;;7.90;3.10;;;;;;;;;;5020626;28;20175;-73
2023/09/28 07:48:23;;;;;;;12.07;3.05;;;;;;;;;;5025966;28;20053;-73
2023/09/28 07:50:50;;;;;;;8.10;2.97;;;;;;;;;;5024154;28;20032;-71
2023/09/28 07:53:16;;;;;;;10.80;3.67;;;;;;;;;;5020878;28;20029;-73
2023/09/28 07:55:43;;;;;;;10.65;3.00;;;;;;;;;;5011711;28;20029;-75
2023/09/28 07:58:10;;;;;;;9.23;3.35;;;;;;;;;;5018368;28;20032;-73
2023/09/28 08:00:37;;;;;;;7.47;3.35;;;;;;;;;;5015583;28;20034;-73
2023/09/28 08:03:03;;;;;;;10.32;3.67;;;;;;;;;;5015300;28;20026;-73
2023/09/28 08:05:31;;;;;;;10.32;3.50;;;;;;;;;;5016703;28;20057;-74
2023/09/28 08:07:58;;;;;;;9.63;2.78;;;;;;;;;;5018413;28;20038;-73
2023/09/28 08:10:24;;;;;;;10.02;3.90;;;;;;;;;;5009772;28;20049;-72
2023/09/28 08:12:50;;;;;;;6.72;3.42;;;;;;;;;;5016623;28;20552;-73
2023/09/28 08:15:16;;;;;;;8.55;3.33;;;;;;;;;;5018565;28;20029;-74
2023/09/28 08:17:45;;;;;;;17.23;3.83;;;;;;;;;;5017644;28;20080;-73
2023/09/28 08:20:11;;;;;;;16.08;4.20;;;;;;;;;;5016694;28;20051;-71
2023/09/28 08:22:38;;;;;;;14.23;4.03;;;;;;;;;;5011321;28;20033;-72
2023/09/28 08:25:07;;;;;;;14.60;3.30;;;;;;;;;;5017389;28;20072;-73
2023/09/28 08:27:33;;;;;;;9.25;3.35;;;;;;;;;;5015556;28;20029;-72
2023/09/28 08:29:59;;;;;;;9.20;3.38;;;;;;;;;;5015018;28;20433;-73
2023/09/28 08:32:26;;;;;;;12.52;4.15;;;;;;;;;;5016648;28;21136;-73
2023/09/28 08:34:52;;;;;;;11.85;3.50;;;;;;;;;;5014650;28;20457;-73
2023/09/28 08:37:19;;;;;;;15.55;3.33;;;;;;;;;;5015403;28;20116;-72
2023/09/28 08:39:45;;;;;;;18.08;4.60;;;;;;;;;;5011173;28;20100;-71
2023/09/28 08:42:13;;;;;;;9.23;3.88;;;;;;;;;;5020325;28;20033;-72
2023/09/28 08:44:40;;;;;;;14.30;3.72;;;;;;;;;;5012443;28;20021;-72
2023/09/28 08:47:17;;;;;;;17.23;4.20;;;;;;;;;;5009415;28;20124;-72
2023/09/28 08:49:50;;;;;;;13.07;4.75;;;;;;;;;;5016104;28;20169;-75
2023/09/28 08:52:17;;;;;;;8.57;3.00;;;;;;;;;;5012964;28;20026;-74
2023/09/28 08:54:43;;;;;;;12.45;4.15;;;;;;;;;;5021076;28;20038;-74
2023/09/28 08:57:11;;;;;;;18.95;5.70;;;;;;;;;;5019807;28;20022;-73
2023/09/28 08:59:41;;;;;;;13.75;4.07;;;;;;;;;;5022922;28;20048;-74
2023/09/28 09:02:09;;;;;;;11.80;5.57;;;;;;;;;;5016690;28;20091;-73
2023/09/28 09:04:35;;;;;;;14.63;4.28;;;;;;;;;;5021752;28;20030;-73
2023/09/28 09:07:05;;;;;;;11.95;4.03;;;;;;;;;;5017414;28;20081;-72
2023/09/28 09:09:40;;;;;;;13.50;3.70;;;;;;;;;;5015296;28;20402;-72
2023/09/28 09:12:12;;;;;;;10.10;3.53;;;;;;;;;;5014670;28;20548;-76
2023/09/28 09:14:38;;;;;;;12.20;3.85;;;;;;;;;;5020018;28;20025;-74
2023/09/28 09:17:04;;;;;;;9.80;3.70;;;;;;;;;;5016714;28;20485;-75
2023/09/28 09:19:31;;;;;;;10.45;3.60;;;;;;;;;;5014569;28;20026;-74
2023/09/28 09:21:57;;;;;;;15.82;4.00;;;;;;;;;;5019790;28;20064;-73
2023/09/28 09:24:23;;;;;;;17.90;3.90;;;;;;;;;;5012378;28;20018;-73
2023/09/28 09:26:52;;;;;;;10.77;3.75;;;;;;;;;;5021748;28;20029;-74
2023/09/28 09:29:19;;;;;;;12.93;4.38;;;;;;;;;;5012729;28;20087;-73
2023/09/28 09:31:49;;;;;;;12.70;4.22;;;;;;;;;;5010979;28;20034;-74
2023/09/28 09:34:17;;;;;;;15.15;3.88;;;;;;;;;;5009108;28;20370;-72
2023/09/28 09:36:51;;;;;;;13.38;3.10;;;;;;;;;;5018916;28;20584;-72
2023/09/28 09:39:24;;;;;;;18.85;4.07;;;;;;;;;;5032734;28;20064;-71
2023/09/28 09:41:51;;;;;;;10.75;3.40;;;;;;;;;;5013332;28;20527;-72
2023/09/28 09:44:18;;;;;;;10.52;4.70;;;;;;;;;;5011185;28;20029;-72
2023/09/28 09:46:55;;;;;;;16.73;4.00;;;;;;;;;;5019046;28;20029;-74
2023/09/28 09:49:24;;;;;;;12.75;3.30;;;;;;;;;;5022054;28;20409;-73
2023/09/28 09:51:50;;;;;;;8.45;3.65;;;;;;;;;;5013816;28;20409;-72
2023/09/28 09:54:17;;;;;;;12.65;4.38;;;;;;;;;;5022724;28;20493;-73
2023/09/28 09:56:44;;;;;;;17.00;3.65;;;;;;;;;;5020508;28;20029;-74
2023/09/28 09:59:16;;;;;;;13.70;5.70;;;;;;;;;;5013742;28;20077;-73
2023/09/28 10:01:47;;;;;;;12.68;4.63;;;;;;;;;;5015542;28;20768;-73
2023/09/28 10:04:17;;;;;;;13.27;3.83;;;;;;;;;;5018002;28;20189;-74
2023/09/28 10:06:45;;;;;;;18.85;3.47;;;;;;;;;;5019285;28;20237;-74
2023/09/28 10:09:13;;;;;;;12.77;4.95;;;;;;;;;;5024375;28;20072;-72
2023/09/28 10:11:39;;;;;;;15.40;4.80;;;;;;;;;;5019540;28;20025;-74
2023/09/28 10:14:07;;;;;;;10.10;3.75;;;;;;;;;;5021094;28;20029;-70
2023/09/28 10:16:34;;;;;;;11.82;4.25;;;;;;;;;;5016929;28;20030;-73
2023/09/28 10:19:04;;;;;;;9.25;3.70;;;;;;;;;;5020880;28;20192;-73
2023/09/28 10:21:40;;;;;;;13.10;4.03;;;;;;;;;;5021816;28;20078;-72
2023/09/28 10:24:11;;;;;;;13.68;3.90;;;;;;;;;;5025749;28;20120;-72
2023/09/28 10:26:40;;;;;;;11.30;4.47;;;;;;;;;;5014596;28;20607;-73
2023/09/28 10:29:07;;;;;;;9.95;4.20;;;;;;;;;;5018767;28;20032;-73
2023/09/28 10:31:55;;;;;;;13.98;3.70;;;;;;;;;;5022537;28;20237;-73
2023/09/28 10:34:23;;;;;;;12.95;3.33;;;;;;;;;;5026441;28;20026;-73
2023/09/28 10:37:18;;;;;;;9.50;4.53;;;;;;;;;;5019567;28;20357;-73
2023/09/28 10:39:47;;;;;;;16.52;5.03;;;;;;;;;;5015844;28;20107;-71
2023/09/28 10:42:16;;;;;;;13.85;4.88;;;;;;;;;;5013019;28;20264;-69
2023/09/28 10:44:53;;;;;;;21.42;4.75;;;;;;;;;;5009715;28;20358;-72
2023/09/28 10:47:20;;;;;;;12.77;4.43;;;;;;;;;;5016554;28;20489;-74
2023/09/28 10:49:48;;;;;;;11.70;4.28;;;;;;;;;;5018255;28;20037;-73
2023/09/28 10:52:16;;;;;;;14.43;5.63;;;;;;;;;;5019054;28;20133;-71
2023/09/28 10:54:44;;;;;;;15.70;4.25;;;;;;;;;;5015296;28;20060;-73
2023/09/28 10:57:10;;;;;;;11.10;4.03;;;;;;;;;;5015470;28;20022;-74
2023/09/28 10:59:37;;;;;;;14.90;4.20;;;;;;;;;;5031873;28;20112;-74
2023/09/28 11:02:06;;;;;;;9.25;4.03;;;;;;;;;;5018748;28;20139;-73
2023/09/28 11:04:33;;;;;;;10.88;4.88;;;;;;;;;;5017974;28;20610;-72
2023/09/28 11:07:01;;;;;;;11.20;4.38;;;;;;;;;;5021107;28;20037;-73
2023/09/28 11:09:29;;;;;;;12.75;4.65;;;;;;;;;;5016542;28;20326;-74
2023/09/28 11:11:55;;;;;;;10.23;4.25;;;;;;;;;;5017573;28;20021;-74
2023/09/28 11:14:25;;;;;;;21.50;4.20;;;;;;;;;;5014101;28;20424;-74
2023/09/28 11:16:52;;;;;;;9.43;4.85;;;;;;;;;;5020576;28;20026;-76
2023/09/28 11:19:23;;;;;;;10.30;4.40;;;;;;;;;;5013844;28;20053;-74
2023/09/28 11:21:50;;;;;;;14.45;5.85;;;;;;;;;;5017016;28;20094;-75
2023/09/28 11:24:16;;;;;;;12.77;4.75;;;;;;;;;;5013909;28;20025;-74
2023/09/28 11:26:42;;;;;;;10.50;4.50;;;;;;;;;;5017417;28;20323;-74
2023/09/28 11:29:09;;;;;;;26.88;6.13;;;;;;;;;;5019648;28;20041;-74
2023/09/28 11:31:37;;;;;;;16.88;3.55;;;;;;;;;;5016112;28;20509;-74
2023/09/28 11:34:03;;;;;;;15.45;4.47;;;;;;;;;;5016147;28;20113;-73
2023/09/28 11:36:31;;;;;;;15.35;3.75;;;;;;;;;;5019434;28;20471;-73
2023/09/28 11:38:57;;;;;;;12.88;4.30;;;;;;;;;;5018181;28;20049;-72
2023/09/28 11:41:23;;;;;;;11.20;4.38;;;;;;;;;;5018302;28;20045;-73
2023/09/28 11:43:51;;;;;;;12.63;5.38;;;;;;;;;;5015389;28;20383;-75
2023/09/28 11:46:25;;;;;;;10.05;4.97;;;;;;;;;;5018214;28;20037;-74
2023/09/28 11:49:11;;;;;;;10.65;4.60;;;;;;;;;;5016909;28;20041;-74
2023/09/28 11:51:37;;;;;;;;;;;;;;;;;;5020309;28;20531;-73
2023/09/28 11:54:07;;;;;;;13.00;4.82;;;;;;;;;;5034472;28;19932;-72
2023/09/28 11:56:33;;;;;;;10.05;4.43;;;;;;;;;;5019429;28;20044;-73
2023/09/28 11:58:59;;;;;;;19.92;5.20;;;;;;;;;;5016120;28;20049;-74
2023/09/28 12:01:26;;;;;;;14.63;5.95;;;;;;;;;;5015298;28;20096;-73
2023/09/28 12:03:52;;;;;;;11.65;4.20;;;;;;;;;;5013255;28;20595;-74
2023/09/28 12:06:18;;;;;;;10.23;4.15;;;;;;;;;;5048687;28;20080;-75
2023/09/28 12:08:45;;;;;;;7.72;5.28;;;;;;;;;;5013399;28;20083;-74
2023/09/28 12:11:11;;;;;;;17.13;4.45;;;;;;;;;;5017216;28;20037;-74
2023/09/28 12:13:38;;;;;;;19.15;5.88;;;;;;;;;;5013513;28;20442;-76
2023/09/28 12:16:05;;;;;;;15.05;4.57;;;;;;;;;;5015207;28;20055;-74
2023/09/28 12:18:32;;;;;;;15.93;5.57;;;;;;;;;;5013100;28;20080;-76
2023/09/28 12:20:58;;;;;;;16.42;5.63;;;;;;;;;;5015688;28;20119;-74
2023/09/28 12:23:25;;;;;;;20.33;4.60;;;;;;;;;;5018631;28;20055;-75
2023/09/28 12:25:51;;;;;;;13.32;4.63;;;;;;;;;;5016248;28;20490;-73
2023/09/28 12:28:18;;;;;;;10.82;4.63;;;;;;;;;;5013505;28;20163;-74
2023/09/28 12:30:44;;;;;;;8.85;3.85;;;;;;;;;;5017808;28;20029;-72
2023/09/28 12:33:11;;;;;;;13.07;4.88;;;;;;;;;;5014824;28;20966;-74
2023/09/28 12:35:39;;;;;;;15.05;4.95;;;;;;;;;;5020288;28;20021;-73
2023/09/28 12:38:05;;;;;;;8.93;3.75;;;;;;;;;;5017223;28;20025;-73
2023/09/28 12:40:32;;;;;;;14.02;5.03;;;;;;;;;;5014182;28;20386;-73
2023/09/28 12:43:10;;;;;;;17.45;4.35;;;;;;;;;;5014271;28;20060;-73
2023/09/28 12:45:36;;;;;;;12.50;4.00;;;;;;;;;;5019501;28;20033;-74
2023/09/28 12:48:03;;;;;;;11.30;4.95;;;;;;;;;;5019450;28;20075;-72
2023/09/28 12:50:30;;;;;;;13.77;4.07;;;;;;;;;;5020538;28;20537;-73
2023/09/28 12:52:57;;;;;;;10.32;4.10;;;;;;;;;;5021747;28;20104;-73
2023/09/28 12:55:23;;;;;;;14.07;4.78;;;;;;;;;;5021831;28;20573;-74
2023/09/28 12:57:53;;;;;;;9.82;4.45;;;;;;;;;;5023313;28;20034;-74
2023/09/28 13:00:22;;;;;;;16.40;4.53;;;;;;;;;;5015999;28;20053;-74
2023/09/28 13:02:48;;;;;;;9.43;4.10;;;;;;;;;;5022698;28;20037;-74
2023/09/28 13:05:14;;;;;;;18.85;5.13;;;;;;;;;;4998440;28;20029;-72
2023/09/28 13:07:41;;;;;;;15.95;4.72;;;;;;;;;;5017294;28;21217;-73
2023/09/28 13:10:10;;;;;;;14.48;4.55;;;;;;;;;;5016837;28;20116;-74
2023/09/28 13:12:36;;;;;;;15.38;4.43;;;;;;;;;;5019249;28;20017;-74
2023/09/28 13:15:02;;;;;;;14.18;5.00;;;;;;;;;;5014640;28;20025;-74
2023/09/28 13:17:30;;;;;;;10.27;3.90;;;;;;;;;;5012541;28;20030;-74
2023/09/28 13:19:59;;;;;;;13.52;4.63;;;;;;;;;;5027196;28;20115;-74
2023/09/28 13:22:25;;;;;;;16.63;4.20;;;;;;;;;;5026975;28;20144;-75
2023/09/28 13:24:51;;;;;;;20.73;5.78;;;;;;;;;;5019182;28;20043;-73
2023/09/28 13:27:18;;;;;;;14.15;4.20;;;;;;;;;;5020007;28;20561;-74
2023/09/28 13:29:45;;;;;;;17.70;5.53;;;;;;;;;;5016612;28;20037;-75
2023/09/28 13:32:13;;;;;;;10.45;5.07;;;;;;;;;;5021666;28;20032;-72
2023/09/28 13:34:43;;;;;;;15.57;5.05;;;;;;;;;;5019340;28;20500;-73
2023/09/28 13:37:11;;;;;;;11.30;4.60;;;;;;;;;;5018704;28;20080;-72
2023/09/28 13:39:37;;;;;;;17.23;4.47;;;;;;;;;;5016879;28;20152;-72
2023/09/28 13:42:05;;;;;;;13.82;4.55;;;;;;;;;;5018646;28;20045;-73
2023/09/28 13:44:32;;;;;;;10.50;4.85;;;;;;;;;;5017124;28;20029;-73
2023/09/28 13:47:02;;;;;;;11.00;4.10;;;;;;;;;;5017562;28;20586;-72
2023/09/28 13:49:29;;;;;;;14.57;4.63;;;;;;;;;;5021431;28;20472;-74
2023/09/28 13:51:59;;;;;;;12.77;3.80;;;;;;;;;;5019578;28;20065;-74
2023/09/28 13:54:32;;;;;;;11.00;3.80;;;;;;;;;;5020030;28;20025;-74
2023/09/28 13:56:59;;;;;;;18.35;4.45;;;;;;;;;;5017463;28;20333;-74
2023/09/28 13:59:25;;;;;;;7.38;4.25;;;;;;;;;;5035798;28;20033;-74
2023/09/28 14:01:52;;;;;;;12.73;4.07;;;;;;;;;;5017255;28;20547;-72
2023/09/28 14:04:18;;;;;;;12.02;4.35;;;;;;;;;;5018157;28;20203;-74
2023/09/28 14:06:45;;;;;;;13.20;4.80;;;;;;;;;;5021566;28;20631;-71
2023/09/28 14:09:11;;;;;;;14.63;5.43;;;;;;;;;;5018110;28;20128;-76
2023/09/28 14:11:42;;;;;;;13.30;4.88;;;;;;;;;;5013061;28;20619;-75
2023/09/28 14:14:09;;;;;;;15.25;5.55;;;;;;;;;;5017140;28;20036;-74
2023/09/28 14:16:37;;;;;;;10.18;4.35;;;;;;;;;;5018606;28;20026;-73
2023/09/28 14:19:03;;;;;;;15.10;4.43;;;;;;;;;;5017605;28;20375;-74
2023/09/28 14:21:30;;;;;;;17.13;4.13;;;;;;;;;;5020713;28;20036;-72
2023/09/28 14:23:59;;;;;;;11.60;4.70;;;;;;;;;;5017679;28;20162;-74
2023/09/28 14:26:25;;;;;;;13.82;4.60;;;;;;;;;;5017341;28;20048;-72
2023/09/28 14:28:51;;;;;;;12.10;4.70;;;;;;;;;;5048735;28;20748;-73
2023/09/28 14:31:19;;;;;;;11.02;4.20;;;;;;;;;;5035078;28;20255;-73
2023/09/28 14:33:46;;;;;;;16.08;4.72;;;;;;;;;;5019634;28;20025;-73
2023/09/28 14:36:13;;;;;;;11.32;4.30;;;;;;;;;;5023022;28;20048;-72
2023/09/28 14:38:39;;;;;;;12.93;3.92;;;;;;;;;;5019007;28;20060;-72
2023/09/28 14:41:05;;;;;;;10.23;4.15;;;;;;;;;;5019154;28;20037;-74